Time;durP1;ratioP1;P1;durP2;ratioP2;P2;SDS_P1;SDS_P2;PMS_P1;PMS_P2;Temp;Humidity;BMP_temperature;BMP_pressure;BME280_temperature;BME280_humidity;BME280_pressure;Samples;Min_cycle;Max_cycle;Signal;HPM_P1;HPM_P2
2022/05/24 00:02:10;;;;;;;;;2.40;1.60;;;;;15.81;65.35;99884.97;5050152;28;45742;-56
2022/05/24 00:04:36;;;;;;;;;2.00;2.00;;;;;15.94;65.21;99910.53;5033621;28;46356;-53
2022/05/24 00:07:02;;;;;;;;;1.50;1.00;;;;;15.92;65.09;99908.03;5049950;28;45371;-50
2022/05/24 00:09:27;;;;;;;;;2.50;2.50;;;;;15.83;65.42;99907.69;5058497;28;45717;-54
2022/05/24 00:11:53;;;;;;;;;1.75;1.75;;;;;15.81;65.19;99903.50;5058591;28;45776;-58
2022/05/24 00:17:05;;;;;;;;;1.20;1.20;;;;;15.81;65.29;99934.75;5026276;28;45595;-50
2022/05/24 00:19:30;;;;;;;;;2.00;2.00;;;;;15.78;65.15;99942.75;5055136;28;45942;-55
2022/05/24 00:21:56;;;;;;;;;2.00;2.00;;;;;15.84;64.54;99944.47;5058601;28;45507;-54
2022/05/24 00:24:21;;;;;;;;;1.75;1.75;;;;;15.82;63.98;99950.28;5056288;28;47160;-55
2022/05/24 00:26:47;;;;;;;;;2.00;1.00;;;;;15.81;64.75;99956.09;5058254;28;45486;-56
2022/05/24 00:29:12;;;;;;;;;1.25;1.25;;;;;15.88;63.80;99950.28;5056912;28;45430;-56
2022/05/24 00:31:38;;;;;;;;;1.00;1.00;;;;;15.80;63.22;99919.28;5056722;28;45411;-56
2022/05/24 00:34:03;;;;;;;;;2.25;2.00;;;;;15.91;63.37;99935.94;5057455;28;45967;-57
2022/05/24 00:36:29;;;;;;;;;1.50;1.50;;;;;15.80;63.58;99935.88;5037951;28;45781;-57
2022/05/24 00:38:54;;;;;;;;;2.00;2.00;;;;;15.77;63.40;99933.66;5044151;28;45376;-50
2022/05/24 00:41:31;;;;;;;;;2.00;1.00;;;;;15.55;63.57;99884.00;5061220;28;45401;-49
2022/05/24 00:44:02;;;;;;;;;1.20;1.20;;;;;15.79;63.39;99906.53;5052658;28;45425;-52
2022/05/24 00:46:32;;;;;;;;;1.80;1.80;;;;;15.71;63.33;99913.41;5045963;28;45335;-52
2022/05/24 00:49:04;;;;;;;;;3.80;2.80;;;;;15.34;63.43;99871.94;5024033;28;45420;-54
2022/05/24 00:51:38;;;;;;;;;3.00;3.00;;;;;15.57;63.30;99907.53;5020214;28;45372;-50
2022/05/24 00:54:04;;;;;;;;;1.40;1.40;;;;;15.48;63.51;99884.22;5053781;28;45506;-52
2022/05/24 00:56:49;;;;;;;;;1.75;1.75;;;;;15.47;63.36;99906.63;5021610;28;45330;-50
2022/05/24 00:59:22;;;;;;;;;1.20;1.20;;;;;15.49;63.24;99882.28;5051608;28;45387;-53
2022/05/24 01:01:47;;;;;;;;;3.00;3.00;;;;;15.50;63.04;99876.50;5054279;28;45330;-52
2022/05/24 01:04:14;;;;;;;;;3.00;3.00;;;;;15.68;62.53;99916.72;5036655;28;48136;-49
2022/05/24 01:06:39;;;;;;;;;1.00;1.00;;;;;15.54;63.15;99918.28;5053615;28;45267;-48
2022/05/24 01:09:15;;;;;;;;;2.00;2.00;;;;;15.39;63.11;99924.53;5036817;28;45358;-50
2022/05/24 01:11:43;;;;;;;;;0.20;0.20;;;;;15.30;63.00;99910.34;5020505;28;45560;-50
2022/05/24 01:14:09;;;;;;;;;2.60;2.60;;;;;15.25;62.74;99933.25;5036606;28;46375;-51
2022/05/24 01:16:34;;;;;;;;;1.20;1.20;;;;;15.27;63.16;99922.75;5053373;28;45441;-48
2022/05/24 01:19:04;;;;;;;;;1.25;1.00;;;;;15.36;63.26;99930.59;5034770;28;45384;-47
2022/05/24 01:21:30;;;;;;;;;1.40;1.40;;;;;15.42;62.63;99935.06;5018633;28;45247;-50
2022/05/24 01:24:15;;;;;;;;;2.00;2.00;;;;;15.36;62.66;99917.59;5032892;28;45703;-49
2022/05/24 01:26:52;;;;;;;;;2.60;1.00;;;;;15.48;62.48;99930.41;5018048;28;45244;-47
2022/05/24 01:29:18;;;;;;;;;2.60;1.40;;;;;15.51;62.46;99936.22;5050262;28;45342;-51
2022/05/24 01:37:11;;;;;;;;;3.00;2.00;;;;;15.15;62.38;99933.16;5016820;28;45380;-47
2022/05/24 01:39:37;;;;;;;;;2.20;2.20;;;;;14.61;62.27;99840.91;5070242;28;45398;-51
2022/05/24 01:42:03;;;;;;;;;1.00;1.00;;;;;15.25;62.71;99935.19;5019897;28;45367;-52
2022/05/24 01:44:38;;;;;;;;;1.00;1.00;;;;;15.33;62.30;99937.47;5036136;28;47794;-52
2022/05/24 01:47:04;;;;;;;;;0.40;0.40;;;;;15.35;61.89;99937.19;5036345;28;45532;-54
2022/05/24 01:49:36;;;;;;;;;1.00;1.00;;;;;14.84;62.06;99866.56;5037841;28;45412;-50
2022/05/24 01:52:02;;;;;;;;;2.40;0.00;;;;;15.17;62.21;99953.09;5014856;28;45372;-49
2022/05/24 01:54:28;;;;;;;;;1.75;1.00;;;;;15.20;62.67;99951.75;5036254;28;45499;-48
2022/05/24 01:57:00;;;;;;;;;1.00;1.00;;;;;15.14;62.32;99957.22;5017531;28;45466;-51
2022/05/24 01:59:25;;;;;;;;;2.80;1.00;;;;;14.88;62.40;99931.25;5036163;28;45397;-49
2022/05/24 02:01:55;;;;;;;;;1.00;1.00;;;;;15.02;62.13;99967.59;5036687;28;45345;-49
2022/05/24 02:04:21;;;;;;;;;2.60;1.60;;;;;15.08;62.67;99963.78;5035971;28;45951;-49
2022/05/24 02:06:59;;;;;;;;;1.00;1.00;;;;;14.68;61.90;99932.66;5036129;28;45344;-50
2022/05/24 02:09:25;;;;;;;;;2.00;1.00;;;;;14.62;62.67;99928.19;5036917;28;45221;-54
2022/05/24 02:11:50;;;;;;;;;1.00;1.00;;;;;14.70;62.90;99927.72;5036715;28;45406;-51
2022/05/24 02:14:21;;;;;;;;;2.25;2.00;;;;;14.94;62.50;99960.59;5035563;28;45399;-48
2022/05/24 02:16:54;;;;;;;;;0.00;0.00;;;;;14.94;62.82;99959.78;5036022;28;45479;-50
2022/05/24 02:19:20;;;;;;;;;0.20;0.20;;;;;14.87;62.15;99941.47;5037155;28;45447;-49
2022/05/24 02:21:47;;;;;;;;;0.50;0.50;;;;;14.95;61.91;99948.47;5019389;28;45371;-49
2022/05/24 02:24:19;;;;;;;;;0.40;0.40;;;;;14.85;61.27;99963.00;5035660;28;45503;-50
2022/05/24 02:26:45;;;;;;;;;0.60;0.60;;;;;14.57;62.16;99925.38;5035923;28;45409;-53
2022/05/24 02:29:11;;;;;;;;;0.00;0.00;;;;;14.72;62.14;99947.63;5037142;28;45487;-51
2022/05/24 02:31:36;;;;;;;;;0.00;0.00;;;;;14.67;62.38;99946.75;5034675;28;45441;-50
2022/05/24 02:34:02;;;;;;;;;2.50;1.00;;;;;14.74;62.94;99955.69;5035921;28;45354;-51
2022/05/24 02:36:27;;;;;;;;;0.00;0.00;;;;;14.85;62.41;99962.16;5036378;28;45306;-50
2022/05/24 02:38:53;;;;;;;;;0.00;0.00;;;;;14.83;62.44;99967.94;5036856;28;45761;-48
2022/05/24 02:41:33;;;;;;;;;1.00;0.00;;;;;14.81;62.80;99966.53;5036969;28;45790;-50
2022/05/24 02:44:00;;;;;;;;;0.00;0.00;;;;;14.77;62.11;99960.69;5036674;28;46540;-50
2022/05/24 02:46:26;;;;;;;;;1.40;0.80;;;;;14.72;62.84;99966.13;5036204;28;45416;-50
2022/05/24 02:48:52;;;;;;;;;1.00;1.00;;;;;14.75;62.85;99958.22;5035713;28;45579;-52
2022/05/24 02:51:17;;;;;;;;;1.00;1.00;;;;;14.79;62.42;99965.97;5011584;28;45417;-48
2022/05/24 02:53:43;;;;;;;;;1.00;0.00;;;;;14.69;62.70;99969.41;5033203;28;46691;-52
2022/05/24 02:56:09;;;;;;;;;0.00;0.00;;;;;14.66;62.76;99975.47;5033815;28;45328;-49
2022/05/24 02:58:35;;;;;;;;;1.00;1.00;;;;;14.70;63.01;99980.22;5034554;28;45379;-50
2022/05/24 03:01:00;;;;;;;;;0.00;0.00;;;;;14.58;62.42;99949.13;5036452;28;45639;-52
2022/05/24 03:03:26;;;;;;;;;1.00;1.00;;;;;14.85;62.95;99984.25;5036233;28;46449;-54
2022/05/24 03:05:51;;;;;;;;;1.00;1.00;;;;;14.89;62.50;99982.66;5036120;28;45332;-51
2022/05/24 03:11:01;;;;;;;;;1.00;1.00;;;;;14.82;62.51;99980.09;5036910;28;45342;-50
2022/05/24 03:16:12;;;;;;;;;3.00;1.40;;;;;14.70;62.46;99999.53;5036297;28;45418;-49
2022/05/24 03:18:37;;;;;;;;;1.60;1.00;;;;;14.59;62.67;99994.97;5036029;28;45405;-49
2022/05/24 03:21:03;;;;;;;;;2.75;0.50;;;;;14.45;63.02;99975.19;5036280;28;45556;-49
2022/05/24 03:23:28;;;;;;;;;1.00;1.00;;;;;14.68;62.38;99990.66;5036083;28;46404;-54
2022/05/24 03:25:54;;;;;;;;;0.00;0.00;;;;;14.47;62.79;99979.38;5035902;28;45385;-50
2022/05/24 03:28:22;;;;;;;;;0.50;0.50;;;;;14.66;62.48;100012.19;5035188;28;45416;-49
2022/05/24 03:30:48;;;;;;;;;1.40;1.00;;;;;14.68;62.64;100012.75;5034867;28;45644;-51
2022/05/24 03:33:13;;;;;;;;;2.00;0.50;;;;;14.66;62.34;100020.47;5035975;28;46549;-52
2022/05/24 03:35:39;;;;;;;;;0.00;0.00;;;;;14.63;62.95;100009.94;5035898;28;45496;-49
2022/05/24 03:38:05;;;;;;;;;1.00;1.00;;;;;14.47;61.89;99981.31;5034743;28;45279;-50
2022/05/24 03:40:30;;;;;;;;;1.50;1.00;;;;;14.57;62.37;100005.44;5017898;28;45279;-52
2022/05/24 03:42:56;;;;;;;;;3.00;1.00;;;;;14.50;62.43;100024.97;5034006;28;46686;-49
2022/05/24 03:45:21;;;;;;;;;0.50;0.50;;;;;14.41;62.79;100016.28;5035910;28;45251;-52
2022/05/24 03:47:47;;;;;;;;;0.50;0.50;;;;;14.44;62.92;100024.06;5035819;28;45286;-52
2022/05/24 03:50:13;;;;;;;;;0.00;0.00;;;;;14.49;63.37;100029.66;5034999;28;45666;-52
2022/05/24 03:52:38;;;;;;;;;0.00;0.00;;;;;14.20;63.20;99974.59;5034592;28;45465;-48
2022/05/24 03:55:04;;;;;;;;;2.00;0.00;;;;;14.39;62.54;100009.34;5035625;28;45384;-49
2022/05/24 04:00:14;;;;;;;;;1.00;1.00;;;;;14.44;62.67;100040.63;5035641;28;45488;-49
2022/05/24 04:02:40;;;;;;;;;1.00;0.00;;;;;14.60;62.90;100049.09;5034340;28;46649;-49
2022/05/24 04:05:06;;;;;;;;;1.00;0.50;;;;;14.34;62.44;100040.47;5068047;28;45345;-53
2022/05/24 04:07:31;;;;;;;;;1.00;1.00;;;;;14.14;62.71;100007.91;5035467;28;45442;-52
2022/05/24 04:09:57;;;;;;;;;0.00;0.00;;;;;14.25;62.94;100025.44;5035500;28;45515;-49
2022/05/24 04:12:22;;;;;;;;;2.00;1.00;;;;;14.20;62.84;100027.03;5035055;28;45420;-53
2022/05/24 04:14:48;;;;;;;;;0.00;0.00;;;;;14.43;62.66;100072.09;5035731;28;45318;-51
2022/05/24 04:17:13;;;;;;;;;0.00;0.00;;;;;14.41;62.59;100065.97;5035264;28;45360;-50
2022/05/24 04:19:39;;;;;;;;;3.00;1.75;;;;;14.37;63.11;100067.59;5035806;28;45304;-52
2022/05/24 04:22:04;;;;;;;;;0.50;0.50;;;;;14.32;62.41;100050.94;5034820;28;46597;-51
2022/05/24 04:24:30;;;;;;;;;2.00;0.50;;;;;14.27;62.80;100053.63;5035507;28;45368;-49
2022/05/24 04:26:55;;;;;;;;;1.00;1.00;;;;;14.30;62.61;100053.94;5035447;28;45415;-48
2022/05/24 04:29:21;;;;;;;;;1.00;1.00;;;;;14.35;62.89;100053.19;5035517;28;45709;-49
2022/05/24 04:31:46;;;;;;;;;0.00;0.00;;;;;14.48;62.54;100074.09;5035198;28;45419;-49
2022/05/24 04:34:12;;;;;;;;;0.00;0.00;;;;;14.49;62.23;100073.00;5034875;28;45370;-51
2022/05/24 04:36:37;;;;;;;;;0.00;0.00;;;;;14.40;61.93;100067.06;5035356;28;45360;-48
2022/05/24 04:39:03;;;;;;;;;1.00;1.00;;;;;14.35;62.28;100078.88;5035295;28;45489;-51
2022/05/24 04:44:12;;;;;;;;;0.00;0.00;;;;;14.43;62.23;100088.66;5034891;28;45436;-51
2022/05/24 04:49:24;;;;;;;;;0.60;0.60;;;;;14.25;62.86;100108.25;5010342;28;45405;-53
2022/05/24 04:51:54;;;;;;;;;0.40;0.40;;;;;14.33;62.69;100097.63;5030350;28;47107;-54
2022/05/24 04:54:19;;;;;;;;;0.80;0.80;;;;;14.38;62.29;100102.38;5051427;28;45365;-50
2022/05/24 04:56:46;;;;;;;;;0.25;0.00;;;;;14.37;62.01;100106.22;5038656;28;45875;-53
2022/05/24 04:59:12;;;;;;;;;0.00;0.00;;;;;14.39;62.44;100093.00;5037145;28;45599;-54
2022/05/24 05:01:38;;;;;;;;;1.40;1.40;;;;;14.43;61.99;100102.47;5036763;28;45569;-54
2022/05/24 05:04:04;;;;;;;;;0.75;0.00;;;;;14.38;62.14;100107.91;5036912;28;45535;-50
2022/05/24 05:06:29;;;;;;;;;0.00;0.00;;;;;14.37;61.78;100131.06;5053620;28;45473;-49
2022/05/24 05:08:55;;;;;;;;;0.00;0.00;;;;;14.30;62.18;100125.72;5038487;28;45387;-51
2022/05/24 05:11:20;;;;;;;;;0.00;0.00;;;;;14.26;61.93;100129.25;5037929;28;46410;-52
2022/05/24 05:13:46;;;;;;;;;0.25;0.25;;;;;14.28;62.08;100136.19;5038441;28;45321;-54
2022/05/24 05:16:12;;;;;;;;;0.40;0.00;;;;;14.14;61.83;100101.75;5037970;28;45232;-53
2022/05/24 05:18:37;;;;;;;;;1.75;0.75;;;;;14.09;62.30;100130.09;5038282;28;45239;-48
2022/05/24 05:21:03;;;;;;;;;0.75;0.75;;;;;13.87;62.81;100097.72;5036327;28;46077;-50
2022/05/24 05:23:28;;;;;;;;;1.00;1.00;;;;;13.88;62.76;100093.03;5036440;28;46145;-53
2022/05/24 05:25:54;;;;;;;;;0.00;0.00;;;;;14.24;62.42;100135.00;5038041;28;45198;-48
2022/05/24 05:28:19;;;;;;;;;0.25;0.25;;;;;14.19;62.36;100154.25;5038429;28;45535;-55
2022/05/24 05:33:29;;;;;;;;;1.00;1.00;;;;;14.32;61.74;100147.56;5037452;28;45184;-52
2022/05/24 05:35:55;;;;;;;;;1.00;1.00;;;;;14.26;61.90;100138.38;5038081;28;45292;-52
2022/05/24 05:38:20;;;;;;;;;1.00;1.00;;;;;14.20;62.22;100150.41;5038099;28;45138;-54
2022/05/24 05:40:46;;;;;;;;;1.50;0.75;;;;;14.25;61.60;100166.22;5037382;28;46232;-50
2022/05/24 05:43:12;;;;;;;;;0.75;0.00;;;;;14.21;62.18;100166.69;5036181;28;45379;-51
2022/05/24 05:45:37;;;;;;;;;0.00;0.00;;;;;14.18;62.16;100155.31;5052967;28;45327;-53
2022/05/24 05:48:03;;;;;;;;;2.00;0.00;;;;;14.00;62.17;100134.34;5037569;28;45380;-51
2022/05/24 05:50:29;;;;;;;;;0.00;0.00;;;;;14.21;61.74;100160.34;5019731;28;45482;-53
2022/05/24 05:52:54;;;;;;;;;2.00;0.50;;;;;14.07;62.33;100143.28;5035865;28;45445;-53
2022/05/24 05:55:20;;;;;;;;;0.25;0.25;;;;;13.92;62.13;100124.53;5037639;28;45413;-51
2022/05/24 05:57:46;;;;;;;;;1.00;1.00;;;;;14.26;62.17;100182.53;5036303;28;45554;-50
2022/05/24 06:00:12;;;;;;;;;0.00;0.00;;;;;14.32;61.98;100180.69;5035943;28;46243;-53
2022/05/24 06:02:38;;;;;;;;;0.00;0.00;;;;;14.36;61.96;100190.97;5036876;28;45411;-54
2022/05/24 06:05:04;;;;;;;;;0.50;0.50;;;;;14.36;62.10;100184.63;5052561;28;45427;-54
2022/05/24 06:07:29;;;;;;;;;1.00;0.00;;;;;14.25;61.55;100182.78;5037182;28;45753;-55
2022/05/24 06:09:55;;;;;;;;;1.00;0.75;;;;;13.63;62.32;100105.28;5037018;28;45576;-53
2022/05/24 06:12:20;;;;;;;;;0.75;0.75;;;;;14.25;62.46;100183.59;5036331;28;45352;-51
2022/05/24 06:14:46;;;;;;;;;1.00;1.00;;;;;14.16;61.78;100165.78;5036018;28;45387;-53
2022/05/24 06:17:12;;;;;;;;;2.25;1.00;;;;;14.44;61.82;100199.91;5037288;28;45333;-53
2022/05/24 06:19:37;;;;;;;;;0.00;0.00;;;;;14.44;61.41;100203.53;5036708;28;45402;-50
2022/05/24 06:22:03;;;;;;;;;1.00;1.00;;;;;14.10;61.65;100153.84;5035611;28;45299;-51
2022/05/24 06:24:29;;;;;;;;;2.40;0.20;;;;;14.49;60.92;100214.66;5019612;28;45443;-52
2022/05/24 06:26:55;;;;;;;;;2.00;1.00;;;;;14.41;61.65;100209.53;5037432;28;45463;-53
2022/05/24 06:29:20;;;;;;;;;1.00;1.00;;;;;14.35;61.07;100227.09;5036100;28;47082;-52
2022/05/24 06:31:46;;;;;;;;;1.00;1.00;;;;;14.35;61.32;100222.41;5049104;28;45859;-50
2022/05/24 06:34:12;;;;;;;;;0.75;0.50;;;;;14.42;61.40;100219.50;5033797;28;45423;-48
2022/05/24 06:36:37;;;;;;;;;0.75;0.00;;;;;14.49;61.71;100214.66;5052704;28;45654;-50
2022/05/24 06:39:03;;;;;;;;;1.75;1.75;;;;;14.56;61.37;100213.66;5035198;28;46908;-55
2022/05/24 06:41:29;;;;;;;;;3.00;1.25;;;;;14.36;61.20;100224.09;5036745;28;45419;-51
2022/05/24 06:43:54;;;;;;;;;0.00;0.00;;;;;14.44;61.15;100238.56;5036707;28;45242;-49
2022/05/24 06:46:20;;;;;;;;;0.00;0.00;;;;;14.23;60.95;100194.91;5052718;28;45279;-54
2022/05/24 06:48:45;;;;;;;;;0.25;0.25;;;;;14.30;61.28;100191.97;5036727;28;46017;-49
2022/05/24 06:51:13;;;;;;;;;0.00;0.00;;;;;14.60;60.67;100234.13;5035539;28;45334;-51
2022/05/24 06:53:39;;;;;;;;;3.60;0.60;;;;;14.59;60.30;100238.84;5037142;28;45787;-53
2022/05/24 06:56:05;;;;;;;;;1.25;1.25;;;;;14.59;59.91;100230.56;5036556;28;46117;-54
2022/05/24 06:58:32;;;;;;;;;1.00;1.00;;;;;14.56;59.60;100231.03;5035199;28;45846;-52
2022/05/24 07:03:41;;;;;;;;;2.00;2.00;;;;;14.79;60.42;100248.56;5035272;28;45418;-54
2022/05/24 07:06:07;;;;;;;;;0.00;0.00;;;;;14.87;59.66;100239.00;5036564;28;45358;-54
2022/05/24 07:08:32;;;;;;;;;1.00;1.00;;;;;14.97;59.71;100255.75;5036011;28;45468;-50
2022/05/24 07:10:58;;;;;;;;;2.50;1.00;;;;;15.03;58.91;100254.72;5036311;28;45405;-49
2022/05/24 07:13:23;;;;;;;;;0.00;0.00;;;;;14.74;58.77;100215.34;5036106;28;45283;-50
2022/05/24 07:15:49;;;;;;;;;1.75;1.00;;;;;14.99;59.08;100267.38;5068924;28;45563;-50
2022/05/24 07:18:15;;;;;;;;;1.20;0.00;;;;;14.91;58.98;100265.84;5035201;28;45835;-53
2022/05/24 07:20:41;;;;;;;;;2.00;2.00;;;;;14.88;58.64;100260.84;5018031;28;45327;-55
2022/05/24 07:23:18;;;;;;;;;0.80;0.80;;;;;15.00;58.63;100262.69;5036057;28;45394;-49
2022/05/24 07:25:44;;;;;;;;;0.40;0.40;;;;;14.97;57.95;100264.03;5035319;28;45538;-50
2022/05/24 07:28:10;;;;;;;;;0.25;0.25;;;;;15.12;58.08;100262.56;5035621;28;46443;-50
2022/05/24 07:30:37;;;;;;;;;0.20;0.20;;;;;15.18;57.36;100254.13;5035747;28;45519;-52
2022/05/24 07:33:02;;;;;;;;;0.40;0.00;;;;;15.25;57.21;100259.44;5035639;28;45404;-51
2022/05/24 07:35:28;;;;;;;;;1.00;1.00;;;;;15.23;57.28;100256.13;5035912;28;45486;-51
2022/05/24 07:37:53;;;;;;;;;2.75;1.00;;;;;15.32;57.48;100262.03;5035629;28;45951;-51
2022/05/24 07:45:49;;;;;;;;;1.20;0.00;;;;;15.73;55.62;100270.00;5016158;28;45390;-51
2022/05/24 07:48:16;;;;;;;;;0.00;0.00;;;;;15.81;55.97;100268.72;5015647;28;45589;-52
2022/05/24 07:50:42;;;;;;;;;1.00;1.00;;;;;15.86;56.02;100261.31;5015104;28;45493;-52
2022/05/24 07:53:10;;;;;;;;;1.50;0.75;;;;;15.89;54.55;100270.22;5015856;28;45377;-52
2022/05/24 07:55:36;;;;;;;;;0.00;0.00;;;;;15.70;54.20;100279.66;5030903;28;45326;-54
2022/05/24 07:58:02;;;;;;;;;5.25;2.25;;;;;15.58;55.20;100274.25;5022498;28;45407;-52
2022/05/24 08:00:27;;;;;;;;;1.00;1.00;;;;;15.72;55.05;100271.97;5034386;28;45472;-54
2022/05/24 08:02:53;;;;;;;;;2.50;0.75;;;;;15.85;54.87;100280.97;5035323;28;45360;-51
2022/05/24 08:05:19;;;;;;;;;1.75;1.00;;;;;15.83;54.83;100291.44;5041288;28;45563;-52
2022/05/24 08:07:49;;;;;;;;;1.50;0.50;;;;;15.88;54.07;100282.34;5055151;28;45939;-53
2022/05/24 08:10:15;;;;;;;;;0.40;0.40;;;;;15.84;53.86;100277.34;5053918;28;45462;-53
2022/05/24 08:12:40;;;;;;;;;0.75;0.75;;;;;15.70;54.48;100285.19;5055119;28;45497;-53
2022/05/24 08:15:06;;;;;;;;;1.50;1.50;;;;;15.78;54.31;100286.69;5054548;28;45556;-53
2022/05/24 08:17:32;;;;;;;;;3.00;0.40;;;;;15.86;53.60;100283.44;5045878;28;45474;-53
2022/05/24 08:19:57;;;;;;;;;0.50;0.50;;;;;15.99;53.62;100284.19;5035048;28;45377;-51
2022/05/24 08:22:23;;;;;;;;;2.75;2.00;;;;;16.16;53.12;100264.69;5034896;28;45427;-51
2022/05/24 08:24:48;;;;;;;;;1.00;1.00;;;;;16.20;52.88;100263.09;5017125;28;45491;-53
2022/05/24 08:27:16;;;;;;;;;0.00;0.00;;;;;16.16;52.11;100270.25;5020131;28;46427;-51
2022/05/24 08:29:41;;;;;;;;;2.60;1.60;;;;;16.20;52.03;100279.69;5036088;28;45492;-48
2022/05/24 08:32:08;;;;;;;;;2.80;1.80;;;;;16.25;52.26;100273.38;5058800;28;45298;-49
2022/05/24 08:34:33;;;;;;;;;2.40;2.00;;;;;16.28;52.15;100272.88;5033858;28;45471;-50
2022/05/24 08:36:59;;;;;;;;;2.00;1.00;;;;;16.39;51.83;100282.09;5036349;28;46098;-47
2022/05/24 08:39:25;;;;;;;;;1.00;1.00;;;;;16.50;51.33;100277.50;5050651;28;45404;-55
2022/05/24 08:42:15;;;;;;;;;1.00;1.00;;;;;16.50;51.26;100274.72;5034133;28;45505;-56
2022/05/24 08:50:17;;;;;;;;;0.20;0.20;;;;;16.73;49.27;100283.78;5036369;28;45492;-53
2022/05/24 08:52:49;;;;;;;;;2.00;2.00;;;;;16.73;50.03;100275.47;5037265;28;45480;-53
2022/05/24 08:55:15;;;;;;;;;4.40;2.60;;;;;16.48;50.34;100249.19;5046586;28;45505;-56
2022/05/24 08:57:43;;;;;;;;;1.75;0.00;;;;;16.67;50.25;100282.91;5044368;28;45449;-52
2022/05/24 09:00:13;;;;;;;;;0.00;0.00;;;;;16.76;50.49;100280.50;5068377;28;45545;-55
2022/05/24 09:02:42;;;;;;;;;0.00;0.00;;;;;16.81;51.31;100274.97;5020482;28;45493;-52
2022/05/24 09:05:16;;;;;;;;;1.00;1.00;;;;;16.84;50.45;100248.66;5069142;28;45737;-55
2022/05/24 09:07:54;;;;;;;;;1.00;1.00;;;;;17.10;49.33;100274.66;5013379;28;47053;-52
2022/05/24 09:10:21;;;;;;;;;0.00;0.00;;;;;17.16;49.79;100281.06;5049782;27;45381;-53
2022/05/24 09:13:34;;;;;;;;;0.00;0.00;;;;;17.12;49.79;100282.72;5049424;27;46888;-50
2022/05/24 09:16:06;;;;;;;;;1.40;1.40;;;;;17.21;49.06;100286.66;5013076;28;45305;-53
2022/05/24 09:18:37;;;;;;;;;4.00;1.20;;;;;17.11;49.48;100283.78;5041153;28;45861;-58
2022/05/24 09:21:03;;;;;;;;;2.40;1.00;;;;;17.17;49.16;100278.03;5035856;28;45393;-51
2022/05/24 09:23:51;;;;;;;;;7.20;3.80;;;;;17.11;49.46;100281.88;5037980;28;45398;-54
2022/05/24 09:26:20;;;;;;;;;2.40;2.40;;;;;17.06;49.35;100288.22;5012050;28;45387;-55
2022/05/24 09:28:59;;;;;;;;;4.00;2.60;;;;;17.03;49.58;100261.00;5023934;28;45689;-57
2022/05/24 09:31:44;;;;;;;;;0.60;0.60;;;;;17.22;48.91;100282.75;5048470;28;45568;-55
2022/05/24 09:34:24;;;;;;;;;6.80;4.00;;;;;17.24;49.10;100286.09;5057327;28;45485;-60
2022/05/24 09:37:04;;;;;;;;;3.00;3.00;;;;;17.25;47.66;100282.25;5040060;28;45565;-59
2022/05/24 09:39:37;;;;;;;;;0.40;0.20;;;;;17.34;46.98;100291.72;5056812;28;45447;-58
2022/05/24 09:42:28;;;;;;;;;2.20;2.20;;;;;17.35;47.26;100298.09;5016853;28;45527;-51
2022/05/24 09:45:01;;;;;;;;;2.00;0.40;;;;;17.41;47.39;100304.50;5052777;28;45329;-57
2022/05/24 09:47:45;;;;;;;;;1.00;1.00;;;;;17.45;46.11;100297.34;5056461;28;45483;-58
2022/05/24 09:50:31;;;;;;;;;1.00;1.00;;;;;17.41;47.33;100296.19;5057039;28;45459;-56
2022/05/24 09:53:02;;;;;;;;;2.00;1.00;;;;;17.42;47.61;100300.63;5057330;28;45801;-57
2022/05/24 09:55:49;;;;;;;;;0.80;0.80;;;;;17.36;46.70;100299.78;5055835;28;45275;-57
2022/05/24 09:58:34;;;;;;;;;0.00;0.00;;;;;17.03;46.82;100260.19;5057710;28;45349;-58
2022/05/24 10:01:10;;;;;;;;;3.00;1.00;;;;;17.30;46.79;100293.34;5055731;28;45538;-57
2022/05/24 10:03:55;;;;;;;;;0.00;0.00;;;;;17.39;46.42;100301.19;5057354;28;45410;-55
2022/05/24 10:06:28;;;;;;;;;0.80;0.60;;;;;17.41;46.06;100302.59;5056182;28;45328;-57
2022/05/24 10:08:59;;;;;;;;;1.80;1.80;;;;;17.46;46.36;100308.13;5038049;28;45367;-60
2022/05/24 10:11:38;;;;;;;;;2.00;2.00;;;;;17.45;46.57;100306.47;5056925;28;46124;-55
2022/05/24 10:14:24;;;;;;;;;1.00;1.00;;;;;17.30;46.60;100285.03;5041522;28;45901;-56
2022/05/24 10:17:01;;;;;;;;;1.40;0.20;;;;;17.36;46.50;100307.25;5058125;28;45420;-58
2022/05/24 10:19:36;;;;;;;;;3.00;3.00;;;;;17.30;46.17;100314.72;5037345;28;45491;-56
2022/05/24 10:22:23;;;;;;;;;1.80;1.80;;;;;17.17;46.31;100305.75;5035916;28;46747;-58
2022/05/24 10:24:51;;;;;;;;;1.60;1.60;;;;;16.97;45.66;100313.91;5033159;28;45488;-58
2022/05/24 10:27:29;;;;;;;;;1.40;1.00;;;;;16.95;46.79;100316.94;5036071;28;45317;-59
2022/05/24 10:30:09;;;;;;;;;1.40;1.40;;;;;16.94;46.28;100318.03;5036411;28;45318;-61
2022/05/24 10:39:07;;;;;;;;;0.80;0.00;;;;;17.48;45.80;100313.44;5035078;28;45385;-56
2022/05/24 10:41:35;;;;;;;;;1.00;1.00;;;;;17.48;45.78;100308.72;5025672;28;45470;-58
2022/05/24 10:44:05;;;;;;;;;2.00;1.00;;;;;17.61;45.83;100307.38;5001333;28;46347;-57
2022/05/24 10:46:35;;;;;;;;;2.00;2.00;;;;;17.67;45.92;100316.56;5023952;28;45700;-56
2022/05/24 10:49:18;;;;;;;;;0.20;0.20;;;;;17.83;45.64;100324.97;5029791;28;45835;-55
2022/05/24 10:51:48;;;;;;;;;1.00;1.00;;;;;17.55;44.92;100286.28;5032756;28;45469;-55
2022/05/24 10:54:41;;;;;;;;;0.00;0.00;;;;;17.54;45.21;100315.13;5031199;28;46352;-58
2022/05/24 10:57:16;;;;;;;;;0.80;0.80;;;;;17.27;44.91;100282.81;5032132;28;45589;-57
2022/05/24 11:00:01;;;;;;;;;1.00;1.00;;;;;17.15;45.37;100251.66;5029994;28;46071;-55
2022/05/24 11:02:34;;;;;;;;;0.00;0.00;;;;;17.49;45.21;100312.31;5046267;28;45945;-60
2022/05/24 11:05:09;;;;;;;;;1.80;1.20;;;;;17.43;45.76;100297.59;5029533;28;45676;-58
2022/05/24 11:07:36;;;;;;;;;0.60;0.60;;;;;17.60;45.86;100319.59;5030653;28;45777;-58
2022/05/24 11:10:26;;;;;;;;;1.00;1.00;;;;;17.59;45.58;100325.41;5030203;28;45941;-58
2022/05/24 11:12:55;;;;;;;;;1.80;1.80;;;;;17.66;44.94;100322.41;5035521;28;45985;-58
2022/05/24 11:15:33;;;;;;;;;2.00;2.00;;;;;17.81;45.22;100304.97;5032787;28;45808;-57
2022/05/24 11:18:09;;;;;;;;;0.00;0.00;;;;;17.94;44.24;100276.72;5034024;28;45521;-61
2022/05/24 11:20:37;;;;;;;;;1.20;1.20;;;;;18.11;43.94;100309.84;5034239;28;45434;-58
2022/05/24 11:23:15;;;;;;;;;0.60;0.00;;;;;17.97;43.14;100315.03;5033058;28;45778;-58
2022/05/24 11:25:53;;;;;;;;;1.00;0.00;;;;;17.73;43.03;100273.03;5022190;28;48419;-60
2022/05/24 11:28:20;;;;;;;;;1.00;1.00;;;;;17.77;44.48;100310.22;5031037;28;45800;-58
2022/05/24 11:30:46;;;;;;;;;1.60;1.40;;;;;17.60;44.85;100280.75;5043441;28;45467;-51
2022/05/24 11:33:13;;;;;;;;;4.00;2.00;;;;;17.81;44.50;100319.69;5028750;28;45523;-55
2022/05/24 11:35:44;;;;;;;;;1.00;1.00;;;;;17.84;44.61;100315.53;5029334;28;47558;-56
2022/05/24 11:38:16;;;;;;;;;1.00;1.00;;;;;17.64;43.82;100278.28;5030813;28;45848;-57
2022/05/24 11:40:54;;;;;;;;;0.80;0.80;;;;;17.97;43.82;100314.19;5022471;28;45588;-57
2022/05/24 11:43:35;;;;;;;;;2.40;1.00;;;;;18.10;43.62;100318.44;5018763;28;45410;-54
2022/05/24 11:46:06;;;;;;;;;2.00;1.20;;;;;18.35;43.67;100314.88;5010589;28;45864;-59
2022/05/24 11:48:46;;;;;;;;;1.20;0.20;;;;;18.59;43.74;100319.09;5011205;28;45452;-59
2022/05/24 11:51:36;;;;;;;;;2.00;2.00;;;;;18.62;43.02;100310.22;5030845;28;45763;-57
2022/05/24 11:54:23;;;;;;;;;0.00;0.00;;;;;18.62;42.38;100296.31;5021681;28;45483;-60
2022/05/24 11:57:01;;;;;;;;;1.00;1.00;;;;;18.51;41.90;100301.84;5008481;28;45611;-59
2022/05/24 11:59:46;;;;;;;;;1.00;1.00;;;;;18.45;42.42;100308.50;5011179;28;45402;-53
2022/05/24 12:02:25;;;;;;;;;2.60;1.00;;;;;18.20;42.54;100278.75;5022660;28;45487;-55
2022/05/24 12:07:58;;;;;;;;;0.00;0.00;;;;;18.27;43.10;100312.66;5031506;28;45499;-59
2022/05/24 12:10:26;;;;;;;;;1.00;1.00;;;;;18.31;43.33;100308.22;5030255;28;45442;-54
2022/05/24 12:13:04;;;;;;;;;0.40;0.40;;;;;17.90;42.80;100253.38;5030444;28;45855;-56
2022/05/24 12:15:29;;;;;;;;;1.40;1.40;;;;;18.25;43.02;100306.53;5031739;28;45714;-61
2022/05/24 12:17:57;;;;;;;;;1.25;0.00;;;;;18.19;42.44;100314.00;5031310;28;46249;-60
2022/05/24 12:20:33;;;;;;;;;0.40;0.40;;;;;18.12;42.75;100327.31;5031007;28;45377;-58
2022/05/24 12:23:04;;;;;;;;;1.00;1.00;;;;;18.17;43.43;100327.34;5030059;28;45410;-59
2022/05/24 12:25:49;;;;;;;;;0.00;0.00;;;;;18.11;43.05;100326.50;5029701;28;45397;-57